Time;durP1;ratioP1;P1;durP2;ratioP2;P2;SDS_P1;SDS_P2;PMS_P1;PMS_P2;Temp;Humidity;BMP_temperature;BMP_pressure;BME280_temperature;BME280_humidity;BME280_pressure;Samples;Min_cycle;Max_cycle;Signal;HPM_P1;HPM_P2
2022/03/26 00:00:14;;;;;;;29.53;17.13;;;;;;;;;;5075769;28;20583;-70
2022/03/26 00:02:39;;;;;;;29.10;17.10;;;;;;;;;;5084683;28;20252;-70
2022/03/26 00:05:04;;;;;;;28.80;17.67;;;;;;;;;;5082229;28;20249;-70
2022/03/26 00:07:29;;;;;;;30.03;16.67;;;;;;;;;;5077359;28;20256;-70
2022/03/26 00:09:54;;;;;;;28.03;16.93;;;;;;;;;;5082680;28;20184;-70
2022/03/26 00:12:20;;;;;;;30.07;18.27;;;;;;;;;;5078258;28;20307;-70
2022/03/26 00:14:45;;;;;;;29.50;17.53;;;;;;;;;;5088139;28;20184;-70
2022/03/26 00:17:10;;;;;;;28.87;17.93;;;;;;;;;;5087678;28;20169;-70
2022/03/26 00:19:35;;;;;;;30.33;16.73;;;;;;;;;;5083101;28;20177;-70
2022/03/26 00:22:01;;;;;;;30.67;17.73;;;;;;;;;;5079559;28;20193;-70
2022/03/26 00:24:26;;;;;;;28.48;17.60;;;;;;;;;;5083396;28;20203;-70
2022/03/26 00:26:52;;;;;;;27.97;16.77;;;;;;;;;;5078051;28;20169;-70
2022/03/26 00:29:17;;;;;;;29.73;18.17;;;;;;;;;;5083866;28;20196;-70
2022/03/26 00:31:42;;;;;;;29.13;19.80;;;;;;;;;;5077147;28;20595;-70
2022/03/26 00:34:09;;;;;;;30.43;16.83;;;;;;;;;;5088682;28;20207;-70
2022/03/26 00:36:34;;;;;;;30.63;18.73;;;;;;;;;;5085604;28;20212;-70
2022/03/26 00:38:59;;;;;;;30.40;18.43;;;;;;;;;;5081811;28;20185;-70
2022/03/26 00:41:24;;;;;;;25.90;16.83;;;;;;;;;;5084196;28;20170;-70
2022/03/26 00:43:50;;;;;;;28.17;17.93;;;;;;;;;;5086106;28;20183;-70
2022/03/26 00:46:15;;;;;;;28.10;17.20;;;;;;;;;;5084504;28;20186;-70
2022/03/26 00:48:40;;;;;;;31.80;18.63;;;;;;;;;;5097439;27;20169;-70
2022/03/26 00:51:05;;;;;;;28.33;16.60;;;;;;;;;;5086728;28;20178;-70
2022/03/26 00:53:31;;;;;;;28.23;16.43;;;;;;;;;;5086886;28;20278;-70
2022/03/26 00:55:56;;;;;;;30.50;17.03;;;;;;;;;;5084843;28;20198;-70
2022/03/26 00:58:21;;;;;;;29.73;17.47;;;;;;;;;;5085286;28;20169;-72
2022/03/26 01:00:46;;;;;;;31.33;18.00;;;;;;;;;;5080420;28;20181;-70
2022/03/26 01:03:12;;;;;;;29.63;17.40;;;;;;;;;;5084844;28;20203;-70
2022/03/26 01:05:37;;;;;;;26.83;16.23;;;;;;;;;;5084909;28;20193;-70
2022/03/26 01:08:03;;;;;;;30.60;19.47;;;;;;;;;;5081283;28;20850;-70
2022/03/26 01:10:28;;;;;;;27.00;16.10;;;;;;;;;;5086141;28;20177;-70
2022/03/26 01:12:53;;;;;;;22.37;16.00;;;;;;;;;;5083828;28;20362;-70
2022/03/26 01:15:19;;;;;;;25.77;17.53;;;;;;;;;;5090017;28;20188;-70
2022/03/26 01:17:44;;;;;;;27.93;17.07;;;;;;;;;;5081107;28;20288;-70
2022/03/26 01:20:09;;;;;;;29.70;17.47;;;;;;;;;;5083755;28;20180;-70
2022/03/26 01:22:35;;;;;;;28.83;16.53;;;;;;;;;;5079020;28;20235;-70
2022/03/26 01:25:00;;;;;;;30.40;16.97;;;;;;;;;;5085550;28;20215;-70
2022/03/26 01:27:25;;;;;;;30.03;17.13;;;;;;;;;;5078607;28;20179;-73
2022/03/26 01:29:50;;;;;;;27.70;17.23;;;;;;;;;;5081368;28;20220;-72
2022/03/26 01:32:16;;;;;;;32.83;17.13;;;;;;;;;;5080606;28;20204;-72
2022/03/26 01:34:41;;;;;;;27.97;16.90;;;;;;;;;;5077257;28;20265;-72
2022/03/26 01:37:06;;;;;;;28.40;16.57;;;;;;;;;;5085866;28;20177;-72
2022/03/26 01:39:31;;;;;;;28.73;16.43;;;;;;;;;;5080906;28;20260;-72
2022/03/26 01:42:03;;;;;;;24.93;15.53;;;;;;;;;;5078773;28;20173;-72
2022/03/26 01:44:29;;;;;;;26.07;15.83;;;;;;;;;;5096903;27;20191;-71
2022/03/26 01:46:54;;;;;;;28.57;17.27;;;;;;;;;;5078230;28;20178;-71
2022/03/26 01:49:20;;;;;;;27.50;15.97;;;;;;;;;;5081783;28;20193;-71
2022/03/26 01:51:46;;;;;;;30.00;16.70;;;;;;;;;;5077424;28;20191;-71
2022/03/26 01:54:12;;;;;;;26.13;16.53;;;;;;;;;;5083043;28;20200;-71
2022/03/26 01:56:38;;;;;;;29.20;16.97;;;;;;;;;;5083889;28;20169;-71
2022/03/26 01:59:05;;;;;;;27.73;16.20;;;;;;;;;;5087859;28;20191;-71
2022/03/26 02:01:33;;;;;;;27.53;15.90;;;;;;;;;;5083292;28;20177;-71
2022/03/26 02:03:58;;;;;;;28.07;17.03;;;;;;;;;;5078333;28;20224;-71
2022/03/26 02:06:28;;;;;;;29.30;16.57;;;;;;;;;;5084663;28;20187;-71
2022/03/26 02:08:54;;;;;;;27.27;16.73;;;;;;;;;;5080411;28;20195;-71
2022/03/26 02:11:19;;;;;;;25.20;16.20;;;;;;;;;;5085165;28;20434;-71
2022/03/26 02:13:48;;;;;;;31.20;15.87;;;;;;;;;;5080509;28;20209;-71
2022/03/26 02:16:14;;;;;;;27.47;16.07;;;;;;;;;;5079291;28;20172;-71
2022/03/26 02:18:39;;;;;;;23.70;15.47;;;;;;;;;;5077991;28;20173;-71
2022/03/26 02:21:05;;;;;;;25.00;14.83;;;;;;;;;;5080748;28;20185;-71
2022/03/26 02:23:30;;;;;;;29.77;16.60;;;;;;;;;;5077297;28;20173;-71
2022/03/26 02:25:55;;;;;;;24.23;15.43;;;;;;;;;;5078764;28;20185;-71
2022/03/26 02:28:21;;;;;;;26.13;15.03;;;;;;;;;;5079829;28;20407;-71
2022/03/26 02:30:47;;;;;;;26.10;15.70;;;;;;;;;;5078848;28;20189;-71
2022/03/26 02:33:12;;;;;;;27.20;14.43;;;;;;;;;;5082124;28;20205;-71
2022/03/26 02:35:37;;;;;;;26.70;17.13;;;;;;;;;;5077644;28;20180;-71
2022/03/26 02:38:02;;;;;;;27.93;15.27;;;;;;;;;;5081954;28;20188;-71
2022/03/26 02:40:28;;;;;;;24.03;14.73;;;;;;;;;;5085650;28;20175;-70
2022/03/26 02:42:53;;;;;;;24.83;15.33;;;;;;;;;;5085491;28;20184;-71
2022/03/26 02:45:18;;;;;;;32.90;17.50;;;;;;;;;;5083950;28;20173;-71
2022/03/26 02:47:43;;;;;;;25.60;15.57;;;;;;;;;;5083682;28;20183;-71
2022/03/26 02:50:09;;;;;;;29.33;18.00;;;;;;;;;;5088301;28;20190;-71
2022/03/26 02:52:36;;;;;;;28.10;15.53;;;;;;;;;;5085632;28;20228;-71
2022/03/26 02:55:01;;;;;;;29.93;16.53;;;;;;;;;;5083231;28;20188;-71
2022/03/26 02:57:26;;;;;;;22.40;14.97;;;;;;;;;;5084643;28;20188;-70
2022/03/26 02:59:52;;;;;;;23.23;14.87;;;;;;;;;;5085556;28;20178;-71
2022/03/26 03:02:18;;;;;;;27.40;15.77;;;;;;;;;;5087810;28;20179;-71
2022/03/26 03:04:43;;;;;;;26.37;15.43;;;;;;;;;;5083283;28;20209;-71
2022/03/26 03:07:08;;;;;;;27.87;16.00;;;;;;;;;;5084163;28;20174;-71
2022/03/26 03:09:33;;;;;;;22.30;13.97;;;;;;;;;;5086118;28;20176;-71
2022/03/26 03:11:58;;;;;;;25.80;14.73;;;;;;;;;;5086244;28;20239;-71
2022/03/26 03:14:23;;;;;;;25.67;14.00;;;;;;;;;;5087955;28;20249;-71
2022/03/26 03:16:50;;;;;;;29.47;15.57;;;;;;;;;;5086282;28;20172;-70
2022/03/26 03:19:15;;;;;;;24.77;14.50;;;;;;;;;;5087324;28;20184;-71
2022/03/26 03:21:40;;;;;;;28.43;15.77;;;;;;;;;;5082753;28;20175;-71
2022/03/26 03:24:05;;;;;;;29.47;15.80;;;;;;;;;;5090299;28;20172;-71
2022/03/26 03:26:31;;;;;;;25.43;15.63;;;;;;;;;;5086875;28;20453;-71
2022/03/26 03:28:58;;;;;;;25.17;14.73;;;;;;;;;;5087549;28;20179;-71
2022/03/26 03:31:23;;;;;;;25.57;15.30;;;;;;;;;;5085746;28;20183;-71
2022/03/26 03:33:48;;;;;;;27.80;15.20;;;;;;;;;;5086059;28;20281;-71
2022/03/26 03:36:13;;;;;;;25.77;15.23;;;;;;;;;;5083452;28;20185;-71
2022/03/26 03:38:38;;;;;;;25.13;15.27;;;;;;;;;;5087340;28;20172;-71
2022/03/26 03:41:04;;;;;;;26.27;14.87;;;;;;;;;;5087364;28;20183;-71
2022/03/26 03:43:29;;;;;;;27.40;15.77;;;;;;;;;;5088515;28;20455;-71
2022/03/26 03:45:54;;;;;;;22.10;14.00;;;;;;;;;;5084012;28;20179;-71
2022/03/26 03:48:19;;;;;;;25.33;14.67;;;;;;;;;;5086530;28;20180;-71
2022/03/26 03:50:45;;;;;;;26.13;15.37;;;;;;;;;;5084117;28;20183;-71
2022/03/26 03:53:10;;;;;;;21.93;14.30;;;;;;;;;;5081954;28;20192;-71
2022/03/26 03:55:36;;;;;;;25.80;14.33;;;;;;;;;;5082590;28;20234;-71
2022/03/26 03:58:01;;;;;;;25.73;14.60;;;;;;;;;;5081786;28;20171;-71
2022/03/26 04:00:26;;;;;;;24.13;14.90;;;;;;;;;;5084879;28;20185;-71
2022/03/26 04:02:53;;;;;;;32.17;15.27;;;;;;;;;;5082718;28;20457;-71
2022/03/26 04:05:18;;;;;;;25.93;13.67;;;;;;;;;;5083948;28;20206;-71
2022/03/26 04:07:44;;;;;;;23.47;13.93;;;;;;;;;;5085371;28;20237;-71
2022/03/26 04:10:09;;;;;;;26.17;14.77;;;;;;;;;;5084532;28;20190;-71
2022/03/26 04:12:36;;;;;;;22.17;14.23;;;;;;;;;;5086607;28;20223;-71
2022/03/26 04:15:01;;;;;;;25.03;14.37;;;;;;;;;;5089938;28;20215;-71
2022/03/26 04:17:26;;;;;;;24.70;14.13;;;;;;;;;;5092544;28;20172;-71
2022/03/26 04:19:52;;;;;;;23.40;14.53;;;;;;;;;;5092369;28;20170;-71
2022/03/26 04:22:17;;;;;;;23.67;13.77;;;;;;;;;;5085032;28;20188;-71
2022/03/26 04:24:43;;;;;;;23.03;14.80;;;;;;;;;;5089463;28;20179;-71
2022/03/26 04:27:08;;;;;;;24.93;13.87;;;;;;;;;;5091749;28;20186;-71
2022/03/26 04:29:33;;;;;;;26.43;13.73;;;;;;;;;;5087827;28;20226;-71
2022/03/26 04:31:58;;;;;;;27.20;15.40;;;;;;;;;;5094850;28;20193;-71
2022/03/26 04:34:24;;;;;;;26.20;15.23;;;;;;;;;;5086458;28;20303;-71
2022/03/26 04:36:49;;;;;;;26.40;15.07;;;;;;;;;;5088292;28;20182;-71
2022/03/26 04:39:14;;;;;;;28.80;16.83;;;;;;;;;;5084270;28;20177;-71
2022/03/26 04:41:39;;;;;;;22.90;14.50;;;;;;;;;;5089744;28;20179;-71
2022/03/26 04:44:05;;;;;;;25.47;14.43;;;;;;;;;;5087369;28;20191;-71
2022/03/26 04:46:30;;;;;;;26.90;14.03;;;;;;;;;;5086790;28;20186;-71
2022/03/26 04:48:55;;;;;;;25.27;14.97;;;;;;;;;;5085810;28;20183;-71
2022/03/26 04:51:20;;;;;;;26.50;14.50;;;;;;;;;;5088227;28;20182;-71
2022/03/26 04:53:45;;;;;;;24.90;14.70;;;;;;;;;;5085596;28;20257;-71
2022/03/26 04:56:11;;;;;;;28.87;16.07;;;;;;;;;;5088754;28;20187;-71
2022/03/26 04:58:36;;;;;;;27.20;14.23;;;;;;;;;;5084243;28;20176;-71
2022/03/26 05:01:01;;;;;;;24.33;15.27;;;;;;;;;;5101779;27;20181;-71
2022/03/26 05:03:26;;;;;;;28.17;14.30;;;;;;;;;;5083678;28;20175;-71
2022/03/26 05:05:51;;;;;;;26.57;15.43;;;;;;;;;;5086093;28;20177;-71
2022/03/26 05:08:17;;;;;;;24.33;14.87;;;;;;;;;;5087466;28;20260;-71
2022/03/26 05:10:42;;;;;;;29.83;15.77;;;;;;;;;;5087780;28;20179;-71
2022/03/26 05:13:07;;;;;;;24.07;14.40;;;;;;;;;;5089510;28;20221;-71
2022/03/26 05:15:33;;;;;;;22.43;14.20;;;;;;;;;;5096771;28;20169;-71
2022/03/26 05:17:58;;;;;;;27.80;15.53;;;;;;;;;;5096482;28;20197;-71
2022/03/26 05:20:23;;;;;;;27.90;14.50;;;;;;;;;;5083087;28;20186;-71
2022/03/26 05:22:49;;;;;;;27.53;15.50;;;;;;;;;;5085274;28;20271;-71
2022/03/26 05:25:15;;;;;;;27.47;15.57;;;;;;;;;;5085818;28;20175;-71
2022/03/26 05:27:50;;;;;;;28.53;15.50;;;;;;;;;;5084957;28;20254;-71
2022/03/26 05:30:16;;;;;;;26.37;15.70;;;;;;;;;;5088986;28;20251;-71
2022/03/26 05:32:42;;;;;;;25.13;14.60;;;;;;;;;;5089852;28;20210;-71
2022/03/26 05:35:13;;;;;;;28.57;15.00;;;;;;;;;;5083100;28;20175;-71
2022/03/26 05:37:38;;;;;;;27.13;13.77;;;;;;;;;;5091003;28;20182;-71
2022/03/26 05:40:04;;;;;;;25.73;15.07;;;;;;;;;;5084169;28;20205;-71
2022/03/26 05:42:30;;;;;;;21.87;13.43;;;;;;;;;;5086519;28;20226;-71
2022/03/26 05:44:55;;;;;;;27.40;15.37;;;;;;;;;;5087552;28;20175;-71
2022/03/26 05:47:22;;;;;;;26.57;15.63;;;;;;;;;;5087349;28;20198;-71
2022/03/26 05:49:47;;;;;;;24.67;16.27;;;;;;;;;;5090419;28;20183;-71
2022/03/26 05:52:12;;;;;;;24.93;14.60;;;;;;;;;;5090817;28;20189;-71
2022/03/26 05:54:37;;;;;;;28.00;14.80;;;;;;;;;;5085377;28;20199;-71
2022/03/26 05:57:03;;;;;;;29.23;14.43;;;;;;;;;;5087688;28;20178;-71
2022/03/26 05:59:29;;;;;;;24.10;15.07;;;;;;;;;;5083247;28;20209;-71
2022/03/26 06:01:54;;;;;;;26.90;14.57;;;;;;;;;;5084829;28;20179;-71
2022/03/26 06:04:20;;;;;;;31.43;17.10;;;;;;;;;;5084281;28;20207;-71
2022/03/26 06:06:46;;;;;;;31.90;16.83;;;;;;;;;;5083267;28;20178;-71
2022/03/26 06:09:12;;;;;;;25.63;14.57;;;;;;;;;;5085788;28;20407;-71
2022/03/26 06:11:37;;;;;;;23.43;14.27;;;;;;;;;;5078174;28;21702;-71
2022/03/26 06:14:03;;;;;;;29.50;16.27;;;;;;;;;;5086514;28;20289;-71
2022/03/26 06:16:28;;;;;;;28.07;14.87;;;;;;;;;;5082509;28;20182;-71
2022/03/26 06:18:54;;;;;;;30.80;16.70;;;;;;;;;;5084863;28;20269;-71
2022/03/26 06:21:19;;;;;;;27.37;16.00;;;;;;;;;;5087502;28;20172;-71
2022/03/26 06:23:44;;;;;;;28.43;16.87;;;;;;;;;;5085387;28;20186;-71
2022/03/26 06:26:10;;;;;;;27.77;16.40;;;;;;;;;;5089083;28;20181;-70
2022/03/26 06:28:36;;;;;;;30.63;16.67;;;;;;;;;;5086299;28;20233;-71
2022/03/26 06:31:01;;;;;;;26.17;15.13;;;;;;;;;;5088543;28;20191;-71
2022/03/26 06:33:27;;;;;;;25.67;15.57;;;;;;;;;;5081785;28;20203;-71
2022/03/26 06:35:52;;;;;;;25.13;16.13;;;;;;;;;;5085093;28;20262;-71
2022/03/26 06:38:17;;;;;;;29.07;16.43;;;;;;;;;;5086717;28;20174;-71
2022/03/26 06:40:42;;;;;;;25.00;16.60;;;;;;;;;;5083584;28;20209;-71
2022/03/26 06:43:08;;;;;;;30.40;15.80;;;;;;;;;;5086175;28;20176;-71
2022/03/26 06:45:34;;;;;;;29.20;15.97;;;;;;;;;;5085585;28;20171;-71
2022/03/26 06:47:59;;;;;;;30.63;15.87;;;;;;;;;;5087124;28;20191;-71
2022/03/26 06:50:25;;;;;;;29.73;16.57;;;;;;;;;;5089472;28;20239;-71
2022/03/26 06:52:50;;;;;;;30.40;14.57;;;;;;;;;;5082052;28;20203;-71
2022/03/26 06:55:16;;;;;;;26.60;15.20;;;;;;;;;;5083923;28;20199;-71
2022/03/26 06:57:41;;;;;;;28.97;14.70;;;;;;;;;;5084447;28;20182;-71
2022/03/26 07:00:09;;;;;;;27.47;15.50;;;;;;;;;;5083072;28;20184;-71
2022/03/26 07:02:35;;;;;;;27.83;15.00;;;;;;;;;;5083518;28;20273;-71
2022/03/26 07:05:01;;;;;;;28.97;15.20;;;;;;;;;;5091552;28;20194;-71
2022/03/26 07:07:26;;;;;;;29.03;16.13;;;;;;;;;;5088598;28;20264;-71
2022/03/26 07:09:51;;;;;;;23.47;14.87;;;;;;;;;;5084550;28;20199;-71
2022/03/26 07:12:16;;;;;;;32.40;18.20;;;;;;;;;;5094433;28;20235;-71
2022/03/26 07:14:41;;;;;;;28.17;15.17;;;;;;;;;;5082700;28;20316;-71
2022/03/26 07:17:07;;;;;;;24.00;14.40;;;;;;;;;;5085099;28;20175;-71
2022/03/26 07:19:32;;;;;;;27.60;16.77;;;;;;;;;;5083954;28;20174;-71
2022/03/26 07:21:57;;;;;;;28.73;15.63;;;;;;;;;;5086123;28;20169;-71
2022/03/26 07:24:23;;;;;;;24.73;16.23;;;;;;;;;;5084316;28;20279;-71
2022/03/26 07:26:48;;;;;;;29.60;18.87;;;;;;;;;;5087258;28;20194;-71
2022/03/26 07:29:13;;;;;;;25.57;15.17;;;;;;;;;;5088146;28;20234;-71
2022/03/26 07:31:38;;;;;;;28.00;15.63;;;;;;;;;;5092474;28;20182;-71
2022/03/26 07:34:04;;;;;;;29.07;14.93;;;;;;;;;;5081297;28;20205;-70
2022/03/26 07:36:29;;;;;;;26.90;15.17;;;;;;;;;;5085765;28;20203;-70
2022/03/26 07:38:54;;;;;;;27.10;15.57;;;;;;;;;;5095989;28;20182;-70
2022/03/26 07:41:21;;;;;;;27.37;15.30;;;;;;;;;;5082811;28;20165;-70
2022/03/26 07:43:46;;;;;;;27.43;15.97;;;;;;;;;;5090999;28;20193;-70
2022/03/26 07:46:12;;;;;;;27.57;16.20;;;;;;;;;;5091311;28;20214;-70
2022/03/26 07:48:37;;;;;;;31.53;17.90;;;;;;;;;;5092829;28;20179;-70
2022/03/26 07:51:03;;;;;;;33.70;18.07;;;;;;;;;;5093190;28;20271;-70
2022/03/26 07:53:29;;;;;;;35.47;16.13;;;;;;;;;;5085823;28;20202;-70
2022/03/26 07:55:55;;;;;;;27.10;16.47;;;;;;;;;;5091667;28;20177;-70
2022/03/26 07:58:20;;;;;;;30.87;17.60;;;;;;;;;;5091322;28;20173;-70
2022/03/26 08:00:45;;;;;;;38.43;17.23;;;;;;;;;;5082425;28;20320;-70
2022/03/26 08:03:12;;;;;;;32.57;19.50;;;;;;;;;;5086155;28;20180;-70
2022/03/26 08:05:38;;;;;;;32.90;18.27;;;;;;;;;;5081068;28;20202;-70
2022/03/26 08:08:03;;;;;;;35.03;17.83;;;;;;;;;;5091217;28;20180;-70
2022/03/26 08:10:28;;;;;;;29.47;17.40;;;;;;;;;;5090078;28;20232;-70
2022/03/26 08:12:54;;;;;;;30.90;17.30;;;;;;;;;;5095116;28;20238;-71
2022/03/26 08:15:19;;;;;;;33.03;19.67;;;;;;;;;;5083835;28;20214;-70
2022/03/26 08:17:44;;;;;;;28.10;17.23;;;;;;;;;;5084170;28;20198;-70
2022/03/26 08:20:10;;;;;;;29.93;17.63;;;;;;;;;;5084794;28;20219;-70
2022/03/26 08:22:35;;;;;;;30.03;17.33;;;;;;;;;;5082496;28;20180;-70
2022/03/26 08:25:00;;;;;;;34.87;18.43;;;;;;;;;;5085031;28;20177;-71
2022/03/26 08:27:26;;;;;;;30.73;17.27;;;;;;;;;;5084588;28;20173;-70
2022/03/26 08:29:52;;;;;;;29.07;17.33;;;;;;;;;;5083017;28;20180;-71
2022/03/26 08:32:17;;;;;;;28.97;15.70;;;;;;;;;;5088099;28;20169;-70
2022/03/26 08:34:43;;;;;;;26.27;16.07;;;;;;;;;;5081771;28;20204;-73
2022/03/26 08:37:08;;;;;;;27.10;16.57;;;;;;;;;;5093378;28;21409;-73
2022/03/26 08:39:33;;;;;;;30.30;18.57;;;;;;;;;;5088566;28;20290;-73
2022/03/26 08:41:58;;;;;;;30.37;17.57;;;;;;;;;;5087373;28;20181;-73
2022/03/26 08:44:24;;;;;;;31.33;19.17;;;;;;;;;;5089692;28;20333;-73
2022/03/26 08:46:49;;;;;;;31.33;18.00;;;;;;;;;;5077209;28;20182;-73
2022/03/26 08:49:15;;;;;;;28.60;18.20;;;;;;;;;;5077489;28;20181;-73
2022/03/26 08:51:40;;;;;;;29.10;17.93;;;;;;;;;;5084765;28;20222;-73
2022/03/26 08:54:05;;;;;;;29.83;17.33;;;;;;;;;;5088047;28;20200;-73
2022/03/26 08:56:31;;;;;;;29.63;18.03;;;;;;;;;;5087705;28;20192;-73
2022/03/26 08:58:57;;;;;;;30.13;18.13;;;;;;;;;;5089212;28;20314;-73
2022/03/26 09:01:22;;;;;;;31.50;18.87;;;;;;;;;;5086921;28;20181;-73
2022/03/26 09:03:50;;;;;;;36.83;19.10;;;;;;;;;;5093937;28;20208;-73
2022/03/26 09:06:15;;;;;;;36.43;20.50;;;;;;;;;;5092363;28;20195;-73
2022/03/26 09:08:40;;;;;;;33.07;20.23;;;;;;;;;;5089137;28;20178;-73
2022/03/26 09:11:06;;;;;;;31.30;18.20;;;;;;;;;;5091784;28;20184;-74
2022/03/26 09:13:31;;;;;;;32.57;20.00;;;;;;;;;;5088571;28;20307;-73
2022/03/26 09:15:58;;;;;;;35.23;19.47;;;;;;;;;;5089843;28;20180;-73
2022/03/26 09:18:24;;;;;;;33.80;19.53;;;;;;;;;;5083873;28;20178;-73
2022/03/26 09:20:50;;;;;;;31.03;17.50;;;;;;;;;;5089925;28;20169;-73
2022/03/26 09:23:15;;;;;;;31.90;19.50;;;;;;;;;;5082797;28;20606;-73
2022/03/26 09:25:41;;;;;;;36.93;20.50;;;;;;;;;;5085251;28;20181;-73
2022/03/26 09:28:07;;;;;;;36.00;19.43;;;;;;;;;;5090614;28;20219;-73
2022/03/26 09:30:32;;;;;;;29.93;19.80;;;;;;;;;;5090632;28;20178;-73
2022/03/26 09:32:57;;;;;;;34.63;20.10;;;;;;;;;;5079698;28;20272;-73
2022/03/26 09:35:23;;;;;;;32.57;20.83;;;;;;;;;;5085421;28;20179;-73
2022/03/26 09:37:48;;;;;;;31.40;20.37;;;;;;;;;;5084980;28;20182;-72
2022/03/26 09:40:13;;;;;;;32.27;20.20;;;;;;;;;;5087380;28;20186;-74
2022/03/26 09:42:39;;;;;;;30.77;18.27;;;;;;;;;;5092912;28;20170;-73
2022/03/26 09:45:06;;;;;;;32.67;19.43;;;;;;;;;;5084014;28;20219;-73
2022/03/26 09:47:32;;;;;;;30.00;20.43;;;;;;;;;;5083905;28;20178;-73
2022/03/26 09:49:58;;;;;;;32.93;20.30;;;;;;;;;;5088573;28;20167;-73
2022/03/26 09:52:23;;;;;;;31.73;19.37;;;;;;;;;;5085180;28;20239;-73
2022/03/26 09:54:49;;;;;;;31.87;20.50;;;;;;;;;;5085660;28;20176;-73
2022/03/26 09:57:14;;;;;;;31.77;19.70;;;;;;;;;;5088727;28;20194;-73
2022/03/26 09:59:39;;;;;;;30.30;19.43;;;;;;;;;;5088528;28;20196;-73
2022/03/26 10:02:04;;;;;;;29.93;17.17;;;;;;;;;;5093594;28;20194;-73
2022/03/26 10:04:39;;;;;;;29.23;18.13;;;;;;;;;;5086702;28;20203;-73
2022/03/26 10:07:05;;;;;;;32.43;19.57;;;;;;;;;;5082820;28;20428;-73
2022/03/26 10:09:37;;;;;;;29.63;18.80;;;;;;;;;;5080809;28;20184;-73
2022/03/26 10:12:06;;;;;;;30.13;18.13;;;;;;;;;;5087283;28;20230;-73
2022/03/26 10:14:38;;;;;;;32.47;18.40;;;;;;;;;;5086299;28;20204;-73
2022/03/26 10:17:11;;;;;;;29.10;18.87;;;;;;;;;;5084407;28;20175;-73
2022/03/26 10:19:36;;;;;;;28.20;18.47;;;;;;;;;;5084803;28;20188;-74
2022/03/26 10:22:02;;;;;;;32.43;20.50;;;;;;;;;;5084858;28;20174;-73
2022/03/26 10:24:28;;;;;;;32.03;18.70;;;;;;;;;;5086847;28;20179;-73
2022/03/26 10:26:54;;;;;;;30.70;18.23;;;;;;;;;;5076514;28;20210;-73
2022/03/26 10:29:19;;;;;;;20.03;13.43;;;;;;;;;;5088029;28;20185;-73
2022/03/26 10:34:28;;;;;;;30.33;18.23;;;;;;;;;;5081382;28;20207;-76
2022/03/26 10:36:53;;;;;;;29.53;18.67;;;;;;;;;;5086896;28;20169;-71
2022/03/26 10:39:22;;;;;;;32.70;20.13;;;;;;;;;;5082873;28;20219;-70
2022/03/26 10:41:49;;;;;;;33.37;19.07;;;;;;;;;;5090644;28;20202;-71
2022/03/26 10:44:15;;;;;;;31.60;20.30;;;;;;;;;;5079852;28;20191;-71
2022/03/26 10:46:42;;;;;;;33.13;19.63;;;;;;;;;;5092133;28;20180;-71
2022/03/26 10:49:07;;;;;;;25.60;18.17;;;;;;;;;;5085941;28;20178;-71
2022/03/26 10:51:40;;;;;;;27.47;17.23;;;;;;;;;;5092895;28;20179;-71
2022/03/26 10:54:10;;;;;;;29.87;18.53;;;;;;;;;;5087225;28;20210;-71
2022/03/26 10:56:36;;;;;;;29.33;17.60;;;;;;;;;;5083237;28;20746;-71
2022/03/26 10:59:02;;;;;;;29.67;18.53;;;;;;;;;;5086194;28;20183;-70
2022/03/26 11:01:27;;;;;;;29.90;18.80;;;;;;;;;;5079126;28;20218;-71
2022/03/26 11:03:52;;;;;;;31.70;19.37;;;;;;;;;;5076616;28;20212;-71
2022/03/26 11:06:20;;;;;;;26.73;17.97;;;;;;;;;;5079849;28;20259;-71
2022/03/26 11:08:47;;;;;;;30.83;18.80;;;;;;;;;;5075209;28;20180;-71
2022/03/26 11:11:12;;;;;;;26.77;18.13;;;;;;;;;;5078541;28;20178;-71
2022/03/26 11:13:42;;;;;;;28.40;19.13;;;;;;;;;;5086482;28;20191;-71
2022/03/26 11:16:09;;;;;;;29.23;19.13;;;;;;;;;;5086549;28;20183;-71
2022/03/26 11:18:38;;;;;;;20.47;13.57;;;;;;;;;;5081672;28;20179;-71
2022/03/26 11:21:21;;;;;;;28.60;17.80;;;;;;;;;;5083674;28;20225;-71
2022/03/26 11:23:51;;;;;;;34.37;17.93;;;;;;;;;;5082311;28;20267;-71
2022/03/26 11:26:22;;;;;;;34.23;16.03;;;;;;;;;;5081452;28;20214;-71
2022/03/26 11:28:59;;;;;;;29.00;18.97;;;;;;;;;;5086021;28;20188;-71
2022/03/26 11:31:24;;;;;;;27.43;17.23;;;;;;;;;;5083805;28;20276;-71
2022/03/26 11:33:49;;;;;;;30.57;21.03;;;;;;;;;;5079940;28;20279;-71
2022/03/26 11:36:18;;;;;;;27.07;17.00;;;;;;;;;;5079901;28;20176;-70
2022/03/26 11:38:52;;;;;;;18.30;9.33;;;;;;;;;;5087396;28;20172;-71
2022/03/26 11:41:29;;;;;;;32.20;18.07;;;;;;;;;;5077121;28;20231;-71
2022/03/26 11:43:55;;;;;;;28.83;16.93;;;;;;;;;;5079075;28;20201;-71
2022/03/26 11:52:18;;;;;;;29.73;17.03;;;;;;;;;;5085622;28;20247;-71
2022/03/26 11:54:44;;;;;;;26.90;16.13;;;;;;;;;;5078607;28;20212;-70
2022/03/26 11:57:19;;;;;;;29.40;16.27;;;;;;;;;;5086892;28;20702;-71
2022/03/26 11:59:45;;;;;;;23.63;13.00;;;;;;;;;;5085595;28;20182;-71
2022/03/26 12:02:21;;;;;;;20.67;12.27;;;;;;;;;;5083096;28;20256;-71
2022/03/26 12:04:48;;;;;;;24.40;12.97;;;;;;;;;;5082655;28;20226;-71
2022/03/26 12:07:13;;;;;;;27.40;17.33;;;;;;;;;;5083672;28;20180;-71
2022/03/26 12:09:39;;;;;;;27.07;15.07;;;;;;;;;;5082786;28;20177;-71
2022/03/26 12:12:04;;;;;;;25.67;15.67;;;;;;;;;;5085766;28;20254;-71
2022/03/26 12:14:30;;;;;;;28.83;17.73;;;;;;;;;;5079679;28;20198;-71
2022/03/26 12:16:55;;;;;;;28.93;18.23;;;;;;;;;;5081118;28;20208;-71
2022/03/26 12:19:41;;;;;;;30.30;17.93;;;;;;;;;;5084043;28;20177;-71
2022/03/26 12:22:19;;;;;;;29.07;17.00;;;;;;;;;;5090238;28;20212;-71
2022/03/26 12:24:44;;;;;;;30.37;19.23;;;;;;;;;;5080648;28;20181;-71
2022/03/26 12:27:12;;;;;;;32.70;20.07;;;;;;;;;;5080629;28;20183;-71
2022/03/26 12:29:38;;;;;;;25.93;17.77;;;;;;;;;;5081993;28;20271;-71
2022/03/26 12:32:03;;;;;;;29.03;17.73;;;;;;;;;;5083841;28;20244;-71
2022/03/26 12:34:29;;;;;;;28.83;17.83;;;;;;;;;;5080464;28;20228;-71
2022/03/26 12:37:00;;;;;;;25.30;17.17;;;;;;;;;;5084201;28;20177;-71
2022/03/26 12:39:26;;;;;;;27.07;19.00;;;;;;;;;;5098095;28;20184;-71
2022/03/26 12:41:51;;;;;;;27.07;16.77;;;;;;;;;;5087120;28;20178;-71
2022/03/26 12:44:16;;;;;;;33.83;19.27;;;;;;;;;;5090525;28;20176;-71
2022/03/26 12:46:44;;;;;;;26.70;18.20;;;;;;;;;;5098436;28;20189;-71
2022/03/26 12:49:18;;;;;;;26.90;18.00;;;;;;;;;;5094950;28;20178;-71
2022/03/26 12:51:44;;;;;;;23.53;17.00;;;;;;;;;;5088882;28;20186;-71
2022/03/26 12:54:09;;;;;;;25.23;14.67;;;;;;;;;;5093055;28;20190;-71
2022/03/26 12:56:34;;;;;;;22.43;12.73;;;;;;;;;;5086681;28;20785;-71
2022/03/26 12:59:00;;;;;;;26.47;17.37;;;;;;;;;;5091538;28;20173;-71
2022/03/26 13:01:26;;;;;;;23.30;15.23;;;;;;;;;;5093584;28;20178;-71
2022/03/26 13:03:51;;;;;;;23.90;16.03;;;;;;;;;;5083961;28;20228;-71
2022/03/26 13:06:17;;;;;;;23.87;14.23;;;;;;;;;;5087440;28;20176;-71
2022/03/26 13:08:50;;;;;;;28.57;17.07;;;;;;;;;;5080878;28;20186;-71
2022/03/26 13:11:15;;;;;;;27.10;15.57;;;;;;;;;;5106956;27;20233;-72
2022/03/26 13:13:51;;;;;;;25.00;15.77;;;;;;;;;;5088035;28;20206;-71
2022/03/26 13:16:18;;;;;;;22.57;15.70;;;;;;;;;;5094033;28;20186;-71
2022/03/26 13:18:57;;;;;;;25.90;15.83;;;;;;;;;;5089847;28;20183;-71
2022/03/26 13:21:22;;;;;;;25.23;16.73;;;;;;;;;;5084754;28;20180;-71
2022/03/26 13:23:51;;;;;;;23.87;14.63;;;;;;;;;;5085648;28;20187;-71
2022/03/26 13:26:16;;;;;;;23.53;15.00;;;;;;;;;;5087863;28;20299;-71
2022/03/26 13:28:41;;;;;;;26.17;15.23;;;;;;;;;;5087411;28;20233;-71
2022/03/26 13:31:20;;;;;;;21.47;15.37;;;;;;;;;;5087854;28;20183;-71
2022/03/26 13:33:45;;;;;;;20.07;13.90;;;;;;;;;;5089037;28;20200;-71
2022/03/26 13:36:10;;;;;;;23.57;14.70;;;;;;;;;;5079533;28;20263;-71
2022/03/26 13:38:38;;;;;;;23.73;15.63;;;;;;;;;;5083498;28;20175;-71
2022/03/26 13:41:17;;;;;;;25.17;15.73;;;;;;;;;;5086344;28;20179;-71
2022/03/26 13:43:43;;;;;;;20.77;13.90;;;;;;;;;;5090808;28;20187;-71
2022/03/26 13:46:09;;;;;;;22.67;15.07;;;;;;;;;;5086194;28;20211;-71
2022/03/26 13:48:51;;;;;;;21.60;13.20;;;;;;;;;;5082239;28;20180;-71
2022/03/26 13:51:17;;;;;;;22.77;14.87;;;;;;;;;;5079311;28;20275;-71
2022/03/26 13:53:43;;;;;;;19.27;13.43;;;;;;;;;;5078990;28;20200;-71
2022/03/26 13:56:09;;;;;;;22.87;13.67;;;;;;;;;;5087005;28;20191;-71
2022/03/26 13:58:35;;;;;;;18.13;10.00;;;;;;;;;;5086349;28;20180;-71
2022/03/26 14:01:04;;;;;;;16.77;12.53;;;;;;;;;;5084999;28;20206;-71
2022/03/26 14:03:30;;;;;;;23.97;14.50;;;;;;;;;;5084827;28;20184;-71
2022/03/26 14:05:55;;;;;;;26.80;15.00;;;;;;;;;;5085479;28;20179;-71
2022/03/26 14:08:20;;;;;;;22.23;12.83;;;;;;;;;;5080548;28;20180;-71
2022/03/26 14:10:46;;;;;;;25.03;14.00;;;;;;;;;;5087603;28;20183;-71
2022/03/26 14:13:15;;;;;;;19.80;12.53;;;;;;;;;;5085113;28;20270;-71
2022/03/26 14:15:42;;;;;;;19.77;13.50;;;;;;;;;;5087684;28;20181;-71
2022/03/26 14:18:10;;;;;;;12.87;9.37;;;;;;;;;;5090398;28;20234;-71